Time;durP1;ratioP1;P1;durP2;ratioP2;P2;SDS_P1;SDS_P2;PMS_P1;PMS_P2;Temp;Humidity;BMP_temperature;BMP_pressure;BME280_temperature;BME280_humidity;BME280_pressure;Samples;Min_cycle;Max_cycle;Signal;HPM_P1;HPM_P2
2023/06/02 00:01:43;;;;;;;;;;;;;;;21.67;40.05;101557.47;4113360;28;19956;-60
2023/06/02 00:03:44;;;;;;;;;;;;;;;21.65;40.09;101556.75;4114429;28;19930;-62
2023/06/02 00:05:46;;;;;;;;;;;;;;;21.65;40.07;101551.41;4114312;28;20423;-61
2023/06/02 00:07:48;;;;;;;;;;;;;;;21.64;39.99;101555.03;4114184;28;19926;-61
2023/06/02 00:09:50;;;;;;;;;;;;;;;21.55;40.27;101543.09;4114279;28;19933;-61
2023/06/02 00:11:51;;;;;;;;;;;;;;;21.64;39.97;101555.03;4113247;28;20353;-60
2023/06/02 00:13:53;;;;;;;;;;;;;;;21.63;39.91;101558.66;4114214;28;19993;-61
2023/06/02 00:15:55;;;;;;;;;;;;;;;21.62;40.09;101564.13;4114220;28;19949;-60
2023/06/02 00:17:56;;;;;;;;;;;;;;;21.60;40.10;101553.50;4114232;28;20490;-61
2023/06/02 00:20:00;;;;;;;;;;;;;;;21.59;40.16;101553.63;4113594;28;19926;-62
2023/06/02 00:22:05;;;;;;;;;;;;;;;21.57;40.14;101555.53;4113820;28;20308;-61
2023/06/02 00:24:07;;;;;;;;;;;;;;;21.57;40.09;101552.88;4114132;28;19964;-61
2023/06/02 00:26:08;;;;;;;;;;;;;;;21.55;40.31;101552.94;4113960;28;19926;-61
2023/06/02 00:28:10;;;;;;;;;;;;;;;21.55;40.43;101559.16;4113995;28;19956;-61
2023/06/02 00:30:12;;;;;;;;;;;;;;;21.54;40.23;101554.78;4113117;28;19926;-60
2023/06/02 00:32:14;;;;;;;;;;;;;;;21.53;40.46;101562.88;4113808;28;19930;-61
2023/06/02 00:34:15;;;;;;;;;;;;;;;21.52;40.32;101563.88;4121322;28;19926;-60
2023/06/02 00:36:17;;;;;;;;;;;;;;;21.50;40.36;101558.59;4128785;28;20000;-61
2023/06/02 00:38:18;;;;;;;;;;;;;;;21.50;40.20;101569.31;4124831;28;20041;-61
2023/06/02 00:40:20;;;;;;;;;;;;;;;21.49;40.28;101569.44;4111930;28;19964;-61
2023/06/02 00:42:22;;;;;;;;;;;;;;;21.48;40.17;101563.22;4112459;28;20021;-62
2023/06/02 00:44:24;;;;;;;;;;;;;;;21.47;40.12;101556.16;4113854;28;19953;-61
2023/06/02 00:46:25;;;;;;;;;;;;;;;21.46;40.08;101557.13;4113875;28;19972;-62
2023/06/02 00:48:27;;;;;;;;;;;;;;;21.47;40.21;101557.97;4113353;28;19926;-61
2023/06/02 00:50:29;;;;;;;;;;;;;;;21.46;40.28;101564.28;4111393;28;19956;-62
2023/06/02 00:52:32;;;;;;;;;;;;;;;21.45;40.17;101555.41;4113607;28;19933;-61
2023/06/02 00:54:33;;;;;;;;;;;;;;;21.44;40.16;101560.88;4113661;28;19938;-61
2023/06/02 00:56:35;;;;;;;;;;;;;;;21.45;40.44;101557.22;4113793;28;20009;-61
2023/06/02 00:58:38;;;;;;;;;;;;;;;21.43;40.07;101557.31;4113688;28;19926;-61
2023/06/02 01:00:41;;;;;;;;;;;;;;;21.42;40.11;101560.94;4112759;28;20299;-62
2023/06/02 01:02:43;;;;;;;;;;;;;;;21.41;40.16;101563.75;4113282;28;20271;-62
2023/06/02 01:04:46;;;;;;;;;;;;;;;21.40;40.18;101565.56;4112230;28;19965;-62
2023/06/02 01:06:49;;;;;;;;;;;;;;;21.40;40.04;101565.56;4113641;28;20021;-61
2023/06/02 01:08:51;;;;;;;;;;;;;;;21.39;40.07;101569.19;4113528;28;19930;-61
2023/06/02 01:10:53;;;;;;;;;;;;;;;21.39;40.10;101566.53;4112201;28;19926;-61
2023/06/02 01:12:55;;;;;;;;;;;;;;;21.38;40.18;101568.31;4113433;28;19941;-61
2023/06/02 01:14:57;;;;;;;;;;;;;;;21.26;39.88;101547.75;4113548;28;19933;-62
2023/06/02 01:16:59;;;;;;;;;;;;;;;21.37;39.94;101569.31;4113226;28;19972;-62
2023/06/02 01:19:06;;;;;;;;;;;;;;;21.36;39.89;101567.59;4113576;28;20279;-61
2023/06/02 01:21:09;;;;;;;;;;;;;;;21.35;40.08;101570.34;4112155;28;19926;-61
2023/06/02 01:23:16;;;;;;;;;;;;;;;21.33;40.37;101569.63;4113453;28;20384;-61
2023/06/02 01:25:22;;;;;;;;;;;;;;;21.31;40.13;101561.72;4113352;28;19979;-60
2023/06/02 01:27:24;;;;;;;;;;;;;;;21.29;40.17;101566.28;4113543;28;20604;-61
2023/06/02 01:29:25;;;;;;;;;;;;;;;21.30;40.11;101561.78;4144221;28;20369;-60
2023/06/02 01:31:29;;;;;;;;;;;;;;;21.29;40.17;101565.41;4111886;28;19933;-62
2023/06/02 01:33:36;;;;;;;;;;;;;;;21.29;40.21;101562.75;4114699;28;19966;-62
2023/06/02 01:35:41;;;;;;;;;;;;;;;21.27;40.21;101565.53;4129533;28;19926;-61
2023/06/02 01:37:46;;;;;;;;;;;;;;;21.27;40.10;101570.03;4128878;28;19930;-61
2023/06/02 01:39:49;;;;;;;;;;;;;;;21.25;40.37;101559.41;4113501;28;19973;-60
2023/06/02 01:41:51;;;;;;;;;;;;;;;21.24;40.14;101557.72;4112093;28;19932;-61
2023/06/02 01:43:54;;;;;;;;;;;;;;;21.23;40.08;101556.84;4113132;28;19967;-61
2023/06/02 01:45:56;;;;;;;;;;;;;;;21.22;40.07;101560.47;4112890;28;19926;-61
2023/06/02 01:48:04;;;;;;;;;;;;;;;21.21;40.32;101556.09;4112996;28;19937;-60
2023/06/02 01:50:06;;;;;;;;;;;;;;;21.21;40.15;101561.44;4113032;28;19935;-61
2023/06/02 01:52:08;;;;;;;;;;;;;;;21.20;39.96;101565.09;4112218;28;20013;-61
2023/06/02 01:54:10;;;;;;;;;;;;;;;21.19;40.14;101558.03;4112778;28;19933;-61
2023/06/02 01:56:12;;;;;;;;;;;;;;;21.19;40.13;101559.84;4113181;28;19926;-61
2023/06/02 01:58:13;;;;;;;;;;;;;;;21.17;40.37;101559.09;4113103;28;19942;-60
2023/06/02 02:00:15;;;;;;;;;;;;;;;21.14;40.23;101562.84;4112849;28;20025;-62
2023/06/02 02:02:17;;;;;;;;;;;;;;;21.13;40.30;101565.59;4111829;28;19926;-61
2023/06/02 02:04:18;;;;;;;;;;;;;;;21.11;40.12;101554.16;4112608;28;19977;-61
2023/06/02 02:06:34;;;;;;;;;;;;;;;21.10;40.15;101558.63;4112897;28;19933;-60
2023/06/02 02:08:36;;;;;;;;;;;;;;;21.09;40.18;101558.75;4112920;28;19933;-60
2023/06/02 02:10:38;;;;;;;;;;;;;;;21.09;40.31;101569.44;4111995;28;19937;-60
2023/06/02 02:12:39;;;;;;;;;;;;;;;21.07;40.15;101553.50;4112710;28;19949;-60
2023/06/02 02:14:41;;;;;;;;;;;;;;;21.06;40.14;101570.50;4113042;28;19966;-61
2023/06/02 02:16:45;;;;;;;;;;;;;;;21.05;40.15;101563.44;4112260;28;19933;-60
2023/06/02 02:18:47;;;;;;;;;;;;;;;21.05;40.35;101563.44;4112852;28;19926;-61
2023/06/02 02:20:49;;;;;;;;;;;;;;;21.03;40.09;101568.03;4111714;28;19927;-61
2023/06/02 02:22:50;;;;;;;;;;;;;;;21.00;40.10;101571.78;4114347;28;19949;-61
2023/06/02 02:24:52;;;;;;;;;;;;;;;21.01;40.00;101567.25;4115556;28;19926;-60
2023/06/02 02:26:53;;;;;;;;;;;;;;;21.00;40.06;101566.41;4115663;28;19926;-60
2023/06/02 02:28:55;;;;;;;;;;;;;;;21.01;39.85;101569.94;4115233;28;20013;-60
2023/06/02 02:30:57;;;;;;;;;;;;;;;21.00;40.17;101570.94;4114316;28;19979;-61
2023/06/02 02:33:01;;;;;;;;;;;;;;;20.98;40.10;101570.16;4115217;28;19926;-60
2023/06/02 02:35:03;;;;;;;;;;;;;;;20.97;40.24;101571.13;4129551;28;20033;-61
2023/06/02 02:37:06;;;;;;;;;;;;;;;20.97;40.02;101573.78;4162845;28;19936;-61
2023/06/02 02:39:08;;;;;;;;;;;;;;;20.96;40.00;101574.75;4119418;28;19988;-61
2023/06/02 02:41:10;;;;;;;;;;;;;;;20.94;40.29;101571.34;4114215;28;19930;-61
2023/06/02 02:43:11;;;;;;;;;;;;;;;20.93;40.09;101580.31;4115417;28;19932;-60
2023/06/02 02:45:13;;;;;;;;;;;;;;;20.91;40.09;101577.72;4114960;28;20315;-60
2023/06/02 02:47:15;;;;;;;;;;;;;;;20.88;40.16;101583.28;4115210;28;20024;-57
2023/06/02 02:49:16;;;;;;;;;;;;;;;20.89;39.95;101575.16;4115517;28;19977;-61
2023/06/02 02:51:18;;;;;;;;;;;;;;;20.89;40.09;101582.31;4114256;28;19926;-61
2023/06/02 02:53:20;;;;;;;;;;;;;;;20.88;40.02;101577.94;4115142;28;19926;-60
2023/06/02 02:55:21;;;;;;;;;;;;;;;20.87;40.12;101582.41;4115329;28;20391;-61
2023/06/02 02:57:23;;;;;;;;;;;;;;;20.85;40.25;101576.31;4115253;28;19949;-61
2023/06/02 02:59:25;;;;;;;;;;;;;;;20.84;40.27;101571.06;4114828;28;20386;-60
2023/06/02 03:01:27;;;;;;;;;;;;;;;20.82;40.25;101578.34;4114141;28;20436;-61
2023/06/02 03:03:31;;;;;;;;;;;;;;;20.81;40.46;101581.97;4115111;28;19926;-61
2023/06/02 03:05:34;;;;;;;;;;;;;;;20.80;40.06;101581.09;4115151;28;20312;-60
2023/06/02 03:07:39;;;;;;;;;;;;;;;20.80;40.01;101581.09;4115294;28;19929;-61
2023/06/02 03:09:41;;;;;;;;;;;;;;;20.78;40.34;101584.81;4114985;28;19930;-61
2023/06/02 03:11:43;;;;;;;;;;;;;;;20.76;39.83;101576.91;4113847;28;20307;-61
2023/06/02 03:13:44;;;;;;;;;;;;;;;20.76;40.01;101579.59;4114800;28;20018;-61
2023/06/02 03:15:46;;;;;;;;;;;;;;;20.73;39.86;101577.13;4114974;28;19927;-61
2023/06/02 03:17:50;;;;;;;;;;;;;;;20.73;40.13;101582.47;4115025;28;20028;-60
2023/06/02 03:19:52;;;;;;;;;;;;;;;20.70;40.18;101586.16;4114959;28;19926;-60
2023/06/02 03:21:56;;;;;;;;;;;;;;;20.70;40.19;101578.13;4113936;28;19976;-60
2023/06/02 03:23:58;;;;;;;;;;;;;;;20.69;40.14;101589.81;4114881;28;20410;-61
2023/06/02 03:26:02;;;;;;;;;;;;;;;20.68;40.21;101582.75;4114679;28;19926;-60
2023/06/02 03:28:04;;;;;;;;;;;;;;;20.68;39.94;101581.84;4114233;28;19926;-61
2023/06/02 03:30:06;;;;;;;;;;;;;;;20.67;40.02;101599.72;4114818;28;19929;-61
2023/06/02 03:32:11;;;;;;;;;;;;;;;20.67;39.83;101596.19;4113891;28;19926;-61
2023/06/02 03:34:13;;;;;;;;;;;;;;;20.65;40.15;101604.31;4121917;28;19932;-61
2023/06/02 03:36:17;;;;;;;;;;;;;;;20.64;40.07;101599.06;4131466;28;19957;-61
2023/06/02 03:38:20;;;;;;;;;;;;;;;20.62;40.06;101593.81;4125151;28;19941;-61
2023/06/02 03:40:21;;;;;;;;;;;;;;;20.62;40.06;101593.81;4114546;28;19978;-61
2023/06/02 03:42:23;;;;;;;;;;;;;;;20.62;40.00;101599.16;4113090;28;19930;-61
2023/06/02 03:44:24;;;;;;;;;;;;;;;20.62;40.03;101593.81;4114661;28;20045;-61
2023/06/02 03:46:26;;;;;;;;;;;;;;;20.61;39.99;101594.78;4114507;28;19977;-61
2023/06/02 03:48:28;;;;;;;;;;;;;;;20.62;40.09;101598.28;4114334;28;19930;-60
2023/06/02 03:50:29;;;;;;;;;;;;;;;20.61;40.18;101592.09;4114368;28;20387;-61
2023/06/02 03:52:31;;;;;;;;;;;;;;;20.60;39.96;101595.72;4112140;28;20407;-61
2023/06/02 03:54:32;;;;;;;;;;;;;;;20.58;39.79;101597.63;4114605;28;19950;-60
2023/06/02 03:56:34;;;;;;;;;;;;;;;20.58;39.97;101597.63;4112927;28;20021;-61
2023/06/02 03:58:35;;;;;;;;;;;;;;;20.57;39.92;101587.91;4114451;28;19926;-61
2023/06/02 04:00:37;;;;;;;;;;;;;;;20.56;40.02;101594.19;4114426;28;20442;-60
2023/06/02 04:02:39;;;;;;;;;;;;;;;20.54;40.13;101594.28;4113477;28;19948;-60
2023/06/02 04:04:41;;;;;;;;;;;;;;;20.54;40.14;101596.97;4114239;28;19952;-61
2023/06/02 04:06:43;;;;;;;;;;;;;;;20.52;39.94;101595.34;4114276;28;19979;-60
2023/06/02 04:08:46;;;;;;;;;;;;;;;20.50;39.90;101590.13;4114345;28;19932;-60
2023/06/02 04:10:48;;;;;;;;;;;;;;;20.50;39.95;101595.47;4113563;28;19926;-61
2023/06/02 04:12:49;;;;;;;;;;;;;;;20.48;39.97;101591.19;4113888;28;19926;-61
2023/06/02 04:14:51;;;;;;;;;;;;;;;20.47;39.75;101597.47;4114146;28;19961;-60
2023/06/02 04:16:52;;;;;;;;;;;;;;;20.46;40.00;101593.06;4114313;28;20120;-61
2023/06/02 04:18:54;;;;;;;;;;;;;;;20.44;40.06;101595.84;4114360;28;19932;-61
2023/06/02 04:20:56;;;;;;;;;;;;;;;20.44;39.86;101595.84;4113287;28;19953;-61
2023/06/02 04:22:57;;;;;;;;;;;;;;;20.43;39.87;101597.66;4113805;28;20020;-61
2023/06/02 04:24:59;;;;;;;;;;;;;;;20.43;39.93;101599.47;4114178;28;19999;-60
2023/06/02 04:27:00;;;;;;;;;;;;;;;20.42;40.08;101597.75;4144805;28;19926;-60
2023/06/02 04:29:02;;;;;;;;;;;;;;;20.40;39.91;101605.88;4113971;28;20076;-60
2023/06/02 04:31:07;;;;;;;;;;;;;;;20.39;39.79;101589.91;4113402;28;19926;-60
2023/06/02 04:33:08;;;;;;;;;;;;;;;20.38;39.94;101596.25;4113852;28;19926;-60
2023/06/02 04:35:10;;;;;;;;;;;;;;;20.37;40.16;101602.53;4128506;28;19926;-61
2023/06/02 04:37:12;;;;;;;;;;;;;;;20.35;39.85;101597.31;4130036;28;19949;-60
2023/06/02 04:39:13;;;;;;;;;;;;;;;20.35;39.83;101594.63;4117334;28;19926;-60
2023/06/02 04:41:15;;;;;;;;;;;;;;;20.34;40.15;101592.91;4112621;28;20311;-60
2023/06/02 04:43:17;;;;;;;;;;;;;;;20.34;39.74;101597.38;4113854;28;19930;-60
2023/06/02 04:45:20;;;;;;;;;;;;;;;20.33;39.67;101599.19;4113287;28;20291;-60
2023/06/02 04:47:22;;;;;;;;;;;;;;;20.33;40.24;101603.66;4114031;28;19926;-61
2023/06/02 04:49:23;;;;;;;;;;;;;;;20.32;39.83;101601.97;4113857;28;19934;-61
2023/06/02 04:51:25;;;;;;;;;;;;;;;20.31;39.63;101605.59;4112564;28;19926;-60
2023/06/02 04:53:27;;;;;;;;;;;;;;;20.30;40.06;101602.06;4113750;28;19937;-61
2023/06/02 04:55:28;;;;;;;;;;;;;;;20.29;40.04;101599.47;4113635;28;20299;-60
2023/06/02 04:57:30;;;;;;;;;;;;;;;20.29;39.80;101602.16;4113791;28;19930;-61
2023/06/02 04:59:38;;;;;;;;;;;;;;;20.27;39.65;101603.09;4113590;28;20394;-60
2023/06/02 05:01:40;;;;;;;;;;;;;;;20.27;40.06;101605.78;4112807;28;19926;-60
2023/06/02 05:03:41;;;;;;;;;;;;;;;20.27;39.96;101610.28;4113635;28;20048;-61
2023/06/02 05:05:43;;;;;;;;;;;;;;;20.25;39.76;101618.34;4113729;28;19978;-60
2023/06/02 05:07:44;;;;;;;;;;;;;;;20.25;39.98;101626.38;4113611;28;19961;-61
2023/06/02 05:09:46;;;;;;;;;;;;;;;20.06;39.68;101583.06;4113115;28;20281;-62
2023/06/02 05:11:47;;;;;;;;;;;;;;;20.24;39.75;101618.47;4111494;28;19926;-61
2023/06/02 05:13:51;;;;;;;;;;;;;;;20.23;39.75;101633.66;4113381;28;19940;-62
2023/06/02 05:15:53;;;;;;;;;;;;;;;20.22;39.73;101629.25;4113669;28;20451;-61
2023/06/02 05:17:56;;;;;;;;;;;;;;;20.20;39.72;101631.16;4113366;28;19930;-63
2023/06/02 05:19:57;;;;;;;;;;;;;;;20.20;39.85;101631.16;4113690;28;19927;-60
2023/06/02 05:21:59;;;;;;;;;;;;;;;20.19;39.60;101626.75;4112383;28;19926;-60
2023/06/02 05:24:01;;;;;;;;;;;;;;;20.18;39.83;101627.69;4113178;28;20344;-59
2023/06/02 05:26:03;;;;;;;;;;;;;;;20.19;39.55;101625.91;4113150;28;19926;-63
2023/06/02 05:28:04;;;;;;;;;;;;;;;20.18;39.83;101629.53;4113315;28;19961;-62
2023/06/02 05:30:06;;;;;;;;;;;;;;;20.16;39.88;101628.75;4113286;28;19934;-60
2023/06/02 05:32:08;;;;;;;;;;;;;;;20.15;39.90;101625.25;4111990;28;19926;-63
2023/06/02 05:34:10;;;;;;;;;;;;;;;20.14;39.88;101626.19;4120060;28;19965;-63
2023/06/02 05:36:11;;;;;;;;;;;;;;;20.15;39.61;101619.06;4129358;28;19948;-60
2023/06/02 05:38:17;;;;;;;;;;;;;;;20.13;39.88;101624.47;4124321;28;19961;-59
2023/06/02 05:40:18;;;;;;;;;;;;;;;20.12;39.58;101617.41;4113393;28;20288;-60
2023/06/02 05:42:20;;;;;;;;;;;;;;;20.11;39.88;101613.88;4112096;28;19931;-61
2023/06/02 05:44:22;;;;;;;;;;;;;;;20.10;39.65;101611.31;4113045;28;19937;-63
2023/06/02 05:46:23;;;;;;;;;;;;;;;20.09;39.81;101606.94;4113267;28;20116;-62
2023/06/02 05:48:25;;;;;;;;;;;;;;;20.08;39.51;101615.88;4113362;28;20004;-62
2023/06/02 05:50:26;;;;;;;;;;;;;;;20.08;39.36;101611.41;4113178;28;20174;-60
2023/06/02 05:52:28;;;;;;;;;;;;;;;20.08;39.74;101611.41;4111478;28;19926;-59
2023/06/02 05:54:29;;;;;;;;;;;;;;;20.08;39.47;101613.22;4111917;28;19926;-63
2023/06/02 05:56:31;;;;;;;;;;;;;;;20.07;39.71;101619.50;4112273;28;19926;-60
2023/06/02 05:58:37;;;;;;;;;;;;;;;20.07;39.69;101616.84;4112848;28;19969;-62
2023/06/02 06:00:38;;;;;;;;;;;;;;;20.05;39.76;101608.94;4112991;28;19933;-60
2023/06/02 06:02:40;;;;;;;;;;;;;;;20.06;39.62;101612.44;4111692;28;20447;-63
2023/06/02 06:04:42;;;;;;;;;;;;;;;20.05;39.65;101611.59;4112985;28;19972;-62
2023/06/02 06:06:43;;;;;;;;;;;;;;;20.04;39.72;101615.22;4112968;28;19968;-60
2023/06/02 06:08:45;;;;;;;;;;;;;;;20.05;39.48;101618.72;4112860;28;19926;-63
2023/06/02 06:10:46;;;;;;;;;;;;;;;20.04;39.46;101617.88;4112500;28;20013;-62
2023/06/02 06:12:48;;;;;;;;;;;;;;;20.02;39.66;101619.78;4112023;28;19930;-62
2023/06/02 06:14:49;;;;;;;;;;;;;;;20.02;39.45;101624.28;4112837;28;19926;-62
2023/06/02 06:16:51;;;;;;;;;;;;;;;20.01;39.32;101622.56;4113066;28;19934;-60
2023/06/02 06:18:52;;;;;;;;;;;;;;;20.00;39.48;101620.84;4112819;28;19926;-62
2023/06/02 06:20:54;;;;;;;;;;;;;;;20.00;39.55;101626.19;4112873;28;19926;-60
2023/06/02 06:22:56;;;;;;;;;;;;;;;19.99;39.71;101616.44;4111285;28;19933;-60
2023/06/02 06:24:58;;;;;;;;;;;;;;;20.01;39.55;101625.22;4143874;28;19930;-59
2023/06/02 06:26:59;;;;;;;;;;;;;;;20.00;39.42;101620.84;4112844;28;19926;-60
2023/06/02 06:29:01;;;;;;;;;;;;;;;20.01;39.32;101627.91;4112454;28;20013;-62
2023/06/02 06:31:02;;;;;;;;;;;;;;;20.00;39.50;101615.50;4112440;28;19976;-62
2023/06/02 06:33:04;;;;;;;;;;;;;;;20.01;39.32;101626.06;4111711;28;19926;-62
2023/06/02 06:35:10;;;;;;;;;;;;;;;20.01;39.40;101627.91;4127492;28;19932;-62
2023/06/02 06:37:16;;;;;;;;;;;;;;;20.01;39.31;101623.41;4128571;28;19964;-62
2023/06/02 06:39:18;;;;;;;;;;;;;;;20.01;39.39;101618.06;4115399;28;20025;-62
2023/06/02 06:41:21;;;;;;;;;;;;;;;19.86;39.13;101611.00;4111787;28;19980;-63
2023/06/02 06:43:23;;;;;;;;;;;;;;;19.99;39.37;101632.47;4112363;28;19927;-62
2023/06/02 06:45:25;;;;;;;;;;;;;;;19.96;39.27;101628.16;4112672;28;19926;-62
2023/06/02 06:47:27;;;;;;;;;;;;;;;19.97;39.50;101629.06;4112604;28;19926;-61
2023/06/02 06:49:28;;;;;;;;;;;;;;;19.95;39.21;101630.00;4112510;28;19930;-61
2023/06/02 06:51:30;;;;;;;;;;;;;;;19.97;39.44;101626.38;4111527;28;19934;-61
2023/06/02 06:53:32;;;;;;;;;;;;;;;19.84;39.14;101612.91;4112193;28;19992;-62
2023/06/02 06:55:33;;;;;;;;;;;;;;;19.97;39.26;101629.06;4112308;28;20013;-61
2023/06/02 06:57:35;;;;;;;;;;;;;;;19.99;39.45;101629.78;4112320;28;19926;-61
2023/06/02 06:59:44;;;;;;;;;;;;;;;19.99;38.96;101643.13;4112344;28;20033;-61
2023/06/02 07:01:46;;;;;;;;;;;;;;;19.96;39.08;101628.16;4111512;28;19927;-61
2023/06/02 07:03:47;;;;;;;;;;;;;;;19.97;39.24;101629.06;4112062;28;20346;-62
2023/06/02 07:05:50;;;;;;;;;;;;;;;19.97;39.02;101637.91;4111897;28;19930;-61
2023/06/02 07:07:51;;;;;;;;;;;;;;;20.00;39.19;101628.84;4112595;28;20037;-62
2023/06/02 07:09:53;;;;;;;;;;;;;;;19.99;39.29;101630.66;4115144;28;19930;-62
2023/06/02 07:11:56;;;;;;;;;;;;;;;19.99;39.12;101635.13;4114022;28;19926;-62
2023/06/02 07:13:59;;;;;;;;;;;;;;;19.98;39.18;101639.63;4114862;28;20088;-63
2023/06/02 07:16:16;;;;;;;;;;;;;;;19.99;39.08;101635.13;4114902;28;20026;-61
2023/06/02 07:18:17;;;;;;;;;;;;;;;20.04;39.10;101633.06;4115060;28;20291;-62
2023/06/02 07:20:22;;;;;;;;;;;;;;;20.06;38.87;101626.66;4114807;28;20021;-62
2023/06/02 07:22:24;;;;;;;;;;;;;;;20.09;39.16;101622.94;4113949;28;19961;-62
2023/06/02 07:24:26;;;;;;;;;;;;;;;20.11;38.89;101621.06;4114692;28;19926;-62
2023/06/02 07:26:27;;;;;;;;;;;;;;;20.13;38.80;101624.47;4114741;28;19926;-61
2023/06/02 07:28:30;;;;;;;;;;;;;;;20.16;38.59;101626.09;4114542;28;20009;-60
2023/06/02 07:30:52;;;;;;;;;;;;;;;20.16;38.67;101613.59;4114744;28;19927;-60
2023/06/02 07:33:14;;;;;;;;;;;;;;;20.16;38.77;101624.28;4113647;28;19926;-60
2023/06/02 07:35:16;;;;;;;;;;;;;;;20.17;38.90;101623.34;4130138;28;20383;-62
2023/06/02 07:37:18;;;;;;;;;;;;;;;20.18;38.64;101627.69;4130792;28;19933;-61
2023/06/02 07:39:19;;;;;;;;;;;;;;;20.19;38.79;101626.75;4117241;28;19969;-60
2023/06/02 07:41:21;;;;;;;;;;;;;;;20.20;38.70;101614.28;4114771;28;20292;-61
2023/06/02 07:43:23;;;;;;;;;;;;;;;20.19;38.56;101625.91;4112482;28;19926;-62
2023/06/02 07:45:25;;;;;;;;;;;;;;;20.18;38.76;101626.88;4114669;28;19988;-61
2023/06/02 07:47:27;;;;;;;;;;;;;;;20.16;38.77;101629.63;4114552;28;19933;-62
2023/06/02 07:49:28;;;;;;;;;;;;;;;20.15;38.75;101635.09;4114247;28;19931;-62
2023/06/02 07:51:30;;;;;;;;;;;;;;;20.13;38.75;101629.81;4114672;28;19948;-61
2023/06/02 07:53:32;;;;;;;;;;;;;;;20.10;38.84;101625.53;4112201;28;19926;-61
2023/06/02 07:55:33;;;;;;;;;;;;;;;20.09;38.70;101636.31;4114662;28;20399;-61
2023/06/02 07:57:35;;;;;;;;;;;;;;;20.07;38.58;101620.38;4114586;28;20363;-61
2023/06/02 07:59:37;;;;;;;;;;;;;;;20.08;38.67;101629.25;4114203;28;19976;-62
2023/06/02 08:01:39;;;;;;;;;;;;;;;20.08;38.72;101632.75;4114148;28;20017;-62
2023/06/02 08:03:40;;;;;;;;;;;;;;;20.10;38.57;101625.53;4113335;28;19972;-62
2023/06/02 08:05:45;;;;;;;;;;;;;;;20.11;38.89;101629.06;4114382;28;19937;-61
2023/06/02 08:07:47;;;;;;;;;;;;;;;20.11;38.76;101624.56;4114497;28;20403;-61
2023/06/02 08:09:48;;;;;;;;;;;;;;;20.13;38.58;101629.81;4114408;28;19930;-62
2023/06/02 08:11:50;;;;;;;;;;;;;;;20.13;38.67;101619.13;4113297;28;19926;-61
2023/06/02 08:13:52;;;;;;;;;;;;;;;20.14;38.36;101610.16;4113735;28;19930;-62
2023/06/02 08:15:54;;;;;;;;;;;;;;;20.10;38.73;101608.66;4114250;28;19969;-61
2023/06/02 08:18:16;;;;;;;;;;;;;;;20.10;38.45;101619.34;4114130;28;20412;-62
2023/06/02 08:20:17;;;;;;;;;;;;;;;20.10;38.32;101620.19;4113299;28;19933;-62
2023/06/02 08:22:20;;;;;;;;;;;;;;;20.10;38.44;101614.84;4113106;28;19938;-62
2023/06/02 08:24:25;;;;;;;;;;;;;;;20.10;38.47;101614.84;4114194;28;19930;-61
2023/06/02 08:26:48;;;;;;;;;;;;;;;20.10;38.74;101608.66;4114006;28;19926;-61
2023/06/02 08:28:51;;;;;;;;;;;;;;;20.09;38.60;101615.78;4113884;28;19933;-61
2023/06/02 08:30:58;;;;;;;;;;;;;;;20.10;38.45;101614.84;4113912;28;20056;-61
2023/06/02 08:33:02;;;;;;;;;;;;;;;20.14;38.63;101603.97;4112371;28;19938;-61
2023/06/02 08:35:04;;;;;;;;;;;;;;;20.14;38.39;101617.34;4127886;28;19926;-61
2023/06/02 08:37:09;;;;;;;;;;;;;;;20.14;38.29;101623.53;4129872;28;20307;-61
2023/06/02 08:39:11;;;;;;;;;;;;;;;20.14;38.23;101623.53;4117524;28;19934;-61
2023/06/02 08:41:13;;;;;;;;;;;;;;;20.15;38.35;101614.56;4113817;28;20303;-61
2023/06/02 08:43:14;;;;;;;;;;;;;;;20.14;38.45;101618.19;4112921;28;20048;-62
2023/06/02 08:45:20;;;;;;;;;;;;;;;20.14;38.36;101617.34;4113712;28;20458;-61
2023/06/02 08:47:27;;;;;;;;;;;;;;;20.14;38.41;101609.31;4113604;28;20012;-61
2023/06/02 08:49:30;;;;;;;;;;;;;;;20.13;38.43;101605.78;4113929;28;19937;-60
2023/06/02 08:51:36;;;;;;;;;;;;;;;20.14;38.27;101607.50;4113615;28;19933;-61
2023/06/02 08:53:42;;;;;;;;;;;;;;;20.13;38.46;101611.13;4112660;28;19949;-61
2023/06/02 08:55:47;;;;;;;;;;;;;;;20.15;38.34;101611.03;4113672;28;19926;-60
2023/06/02 08:57:48;;;;;;;;;;;;;;;20.14;38.33;101610.16;4113776;28;20402;-62
2023/06/02 08:59:50;;;;;;;;;;;;;;;20.14;38.08;101602.16;4113623;28;19930;-60
2023/06/02 09:01:52;;;;;;;;;;;;;;;20.15;38.35;101600.34;4112905;28;19926;-62
2023/06/02 09:03:54;;;;;;;;;;;;;;;20.15;38.60;101605.69;4111880;28;19930;-61
2023/06/02 09:05:58;;;;;;;;;;;;;;;20.16;38.42;101610.06;4113752;28;19934;-61
2023/06/02 09:08:09;;;;;;;;;;;;;;;20.16;38.55;101612.72;4113725;28;19934;-60
2023/06/02 09:10:26;;;;;;;;;;;;;;;20.16;38.49;101607.38;4113521;28;19972;-61
2023/06/02 09:12:28;;;;;;;;;;;;;;;20.14;38.28;101602.16;4143620;28;19930;-61
2023/06/02 09:14:29;;;;;;;;;;;;;;;20.15;38.32;101603.88;4113298;28;19934;-61
2023/06/02 09:16:40;;;;;;;;;;;;;;;20.15;38.43;101598.53;4112932;28;20255;-61
2023/06/02 09:18:58;;;;;;;;;;;;;;;20.15;38.21;101603.03;4113418;28;19948;-62
2023/06/02 09:21:00;;;;;;;;;;;;;;;20.15;38.43;101606.53;4113208;28;19996;-61
2023/06/02 09:23:02;;;;;;;;;;;;;;;20.14;38.62;101612.00;4111054;28;19937;-61
2023/06/02 09:25:19;;;;;;;;;;;;;;;20.08;38.42;101605.22;4113241;28;20009;-62
2023/06/02 09:27:21;;;;;;;;;;;;;;;20.10;38.50;101605.97;4113434;28;19933;-61
2023/06/02 09:29:27;;;;;;;;;;;;;;;20.11;38.50;101597.88;4113166;28;20017;-59
2023/06/02 09:31:48;;;;;;;;;;;;;;;20.14;38.39;101607.50;4113022;28;19926;-60
2023/06/02 09:33:56;;;;;;;;;;;;;;;20.15;38.25;101606.53;4133352;28;20397;-60
2023/06/02 09:35:57;;;;;;;;;;;;;;;20.16;38.15;101604.72;4197291;28;19924;-62
2023/06/02 09:38:07;;;;;;;;;;;;;;;20.15;38.08;101601.22;4197271;28;19924;-61
2023/06/02 09:40:24;;;;;;;;;;;;;;;20.16;38.13;101618.06;4196882;28;20015;-61
2023/06/02 09:42:26;;;;;;;;;;;;;;;20.15;38.35;101605.69;4196391;28;19935;-61
2023/06/02 09:44:28;;;;;;;;;;;;;;;20.15;38.30;101606.53;4196526;28;19925;-61
2023/06/02 09:46:38;;;;;;;;;;;;;;;20.04;37.96;101579.66;4197269;28;20023;-61
2023/06/02 09:48:52;;;;;;;;;;;;;;;20.17;38.10;101606.44;4196993;28;19925;-61
2023/06/02 09:50:55;;;;;;;;;;;;;;;20.17;37.93;101595.75;4196981;28;20016;-61
2023/06/02 09:53:04;;;;;;;;;;;;;;;20.17;38.17;101590.41;4195860;28;19925;-62
2023/06/02 09:55:06;;;;;;;;;;;;;;;20.18;38.09;101592.13;4197004;28;19925;-61
2023/06/02 09:57:08;;;;;;;;;;;;;;;20.16;38.16;101584.22;4196648;28;20394;-61
2023/06/02 09:59:10;;;;;;;;;;;;;;;20.16;38.02;101586.91;4196630;28;19929;-61
2023/06/02 10:01:12;;;;;;;;;;;;;;;20.16;38.27;101586.91;4196838;28;20386;-61
2023/06/02 10:03:14;;;;;;;;;;;;;;;20.16;38.02;101578.00;4195537;28;20129;-60
2023/06/02 10:05:17;;;;;;;;;;;;;;;20.16;38.40;101578.88;4196908;28;19924;-61
2023/06/02 10:07:32;;;;;;;;;;;;;;;20.17;38.53;101588.63;4197055;28;19931;-61
2023/06/02 10:09:43;;;;;;;;;;;;;;;20.18;38.44;101584.97;4196888;28;19948;-62
2023/06/02 10:11:56;;;;;;;;;;;;;;;20.17;38.57;101588.63;4196637;28;20170;-61
2023/06/02 10:14:13;;;;;;;;;;;;;;;20.19;38.63;101588.53;4195337;28;19946;-60
2023/06/02 10:16:25;;;;;;;;;;;;;;;20.21;38.62;101597.31;4196621;28;19925;-61
2023/06/02 10:18:33;;;;;;;;;;;;;;;20.21;38.67;101592.81;4196744;28;19999;-61
2023/06/02 10:20:40;;;;;;;;;;;;;;;20.22;38.55;101581.16;4196766;28;19924;-60
2023/06/02 10:22:53;;;;;;;;;;;;;;;20.22;38.37;101578.50;4195597;28;19925;-61
2023/06/02 10:25:06;;;;;;;;;;;;;;;20.20;38.63;101577.72;4195488;28;19924;-61
2023/06/02 10:27:13;;;;;;;;;;;;;;;20.21;38.52;101578.59;4138233;28;19976;-61
2023/06/02 10:29:16;;;;;;;;;;;;;;;20.22;38.74;101582.97;4112177;28;20386;-62
2023/06/02 10:31:27;;;;;;;;;;;;;;;20.22;38.42;101574.97;4112795;28;19926;-61
2023/06/02 10:33:45;;;;;;;;;;;;;;;20.23;38.75;101579.34;4112891;28;20337;-62